sensor_id;sensor_type;location;lat;lon;timestamp;pressure;altitude;pressure_sealevel;temperature;humidity
34081;BME280;20358;50.272;19.026;2023-04-25T00:02:21;97165.56;;;8.26;70.51
34081;BME280;20358;50.272;19.026;2023-04-25T00:05:28;97170.38;;;8.21;70.71
34081;BME280;20358;50.272;19.026;2023-04-25T00:08:34;97181.41;;;8.15;71.05
34081;BME280;20358;50.272;19.026;2023-04-25T00:11:44;97174.22;;;8.17;70.72
34081;BME280;20358;50.272;19.026;2023-04-25T00:14:49;97176.72;;;8.18;70.90
34081;BME280;20358;50.272;19.026;2023-04-25T00:17:56;97177.56;;;8.19;71.78
34081;BME280;20358;50.272;19.026;2023-04-25T00:21:02;97176.16;;;8.15;71.14
34081;BME280;20358;50.272;19.026;2023-04-25T00:24:09;97174.47;;;8.14;71.28
34081;BME280;20358;50.272;19.026;2023-04-25T00:27:17;97171.91;;;8.03;71.97
34081;BME280;20358;50.272;19.026;2023-04-25T00:30:23;97184.59;;;7.86;73.51
34081;BME280;20358;50.272;19.026;2023-04-25T00:33:29;97175.72;;;7.67;73.95
34081;BME280;20358;50.272;19.026;2023-04-25T00:36:35;97178.28;;;7.57;75.03
34081;BME280;20358;50.272;19.026;2023-04-25T00:39:41;97176.59;;;7.56;74.68
34081;BME280;20358;50.272;19.026;2023-04-25T00:42:51;97182.47;;;7.49;75.37
34081;BME280;20358;50.272;19.026;2023-04-25T00:45:59;97183.56;;;7.35;75.95
34081;BME280;20358;50.272;19.026;2023-04-25T00:49:06;97183.78;;;7.43;76.47
34081;BME280;20358;50.272;19.026;2023-04-25T00:52:17;97182.38;;;7.39;76.93
34081;BME280;20358;50.272;19.026;2023-04-25T00:55:24;97194.78;;;7.37;76.70
34081;BME280;20358;50.272;19.026;2023-04-25T00:58:32;97196.31;;;7.39;76.45
34081;BME280;20358;50.272;19.026;2023-04-25T01:01:39;97191.69;;;7.32;75.74
34081;BME280;20358;50.272;19.026;2023-04-25T01:04:47;97182.78;;;7.23;74.87
34081;BME280;20358;50.272;19.026;2023-04-25T01:07:54;97187.19;;;7.23;75.48
34081;BME280;20358;50.272;19.026;2023-04-25T01:10:59;97194.94;;;7.24;75.55
34081;BME280;20358;50.272;19.026;2023-04-25T01:14:10;97191.00;;;7.19;75.39
34081;BME280;20358;50.272;19.026;2023-04-25T01:17:18;97195.66;;;7.15;75.00
34081;BME280;20358;50.272;19.026;2023-04-25T01:20:26;97157.59;;;6.99;74.32
34081;BME280;20358;50.272;19.026;2023-04-25T01:23:36;97200.31;;;7.12;74.47
34081;BME280;20358;50.272;19.026;2023-04-25T01:26:44;97200.81;;;7.06;74.52
34081;BME280;20358;50.272;19.026;2023-04-25T01:29:56;97193.16;;;7.14;74.41
34081;BME280;20358;50.272;19.026;2023-04-25T01:33:04;97199.50;;;7.00;74.18
34081;BME280;20358;50.272;19.026;2023-04-25T01:36:10;97209.25;;;7.09;74.09
34081;BME280;20358;50.272;19.026;2023-04-25T01:39:21;97203.16;;;7.09;74.93
34081;BME280;20358;50.272;19.026;2023-04-25T01:42:26;97209.25;;;7.09;74.05
34081;BME280;20358;50.272;19.026;2023-04-25T01:45:33;97205.47;;;7.13;74.68
34081;BME280;20358;50.272;19.026;2023-04-25T01:48:41;97200.56;;;7.09;74.43
34081;BME280;20358;50.272;19.026;2023-04-25T01:51:48;97218.94;;;6.98;73.66
34081;BME280;20358;50.272;19.026;2023-04-25T01:54:59;97219.03;;;6.85;73.37
34081;BME280;20358;50.272;19.026;2023-04-25T01:58:10;97203.56;;;6.82;74.21
34081;BME280;20358;50.272;19.026;2023-04-25T02:01:33;97202.72;;;6.82;73.39
34081;BME280;20358;50.272;19.026;2023-04-25T02:04:52;97215.13;;;6.80;72.97
34081;BME280;20358;50.272;19.026;2023-04-25T02:08:01;97212.09;;;6.73;72.64
34081;BME280;20358;50.272;19.026;2023-04-25T02:11:10;97208.38;;;6.53;72.43
34081;BME280;20358;50.272;19.026;2023-04-25T02:14:24;97173.50;;;6.18;72.77
34081;BME280;20358;50.272;19.026;2023-04-25T02:17:37;97218.66;;;6.56;73.14
34081;BME280;20358;50.272;19.026;2023-04-25T02:20:43;97227.19;;;6.47;73.47
34081;BME280;20358;50.272;19.026;2023-04-25T02:23:50;97232.19;;;6.39;73.56
34081;BME280;20358;50.272;19.026;2023-04-25T02:26:58;97221.09;;;6.36;73.92
34081;BME280;20358;50.272;19.026;2023-04-25T02:30:06;97226.44;;;6.34;73.67
34081;BME280;20358;50.272;19.026;2023-04-25T02:33:12;97220.72;;;6.29;73.53
34081;BME280;20358;50.272;19.026;2023-04-25T02:36:19;97218.28;;;6.15;74.54
34081;BME280;20358;50.272;19.026;2023-04-25T02:39:26;97216.19;;;6.20;74.30
34081;BME280;20358;50.272;19.026;2023-04-25T02:42:36;97224.50;;;6.14;74.24
34081;BME280;20358;50.272;19.026;2023-04-25T02:45:41;97225.91;;;6.18;73.80
34081;BME280;20358;50.272;19.026;2023-04-25T02:48:48;97230.66;;;6.13;72.83
34081;BME280;20358;50.272;19.026;2023-04-25T02:51:53;97227.34;;;6.11;73.26
34081;BME280;20358;50.272;19.026;2023-04-25T02:55:00;97225.78;;;6.08;73.41
34081;BME280;20358;50.272;19.026;2023-04-25T02:58:10;97226.56;;;5.98;72.85
34081;BME280;20358;50.272;19.026;2023-04-25T03:01:24;97225.94;;;5.94;73.02
34081;BME280;20358;50.272;19.026;2023-04-25T03:04:29;97224.88;;;5.97;72.24
34081;BME280;20358;50.272;19.026;2023-04-25T03:07:36;97224.66;;;6.00;72.51
34081;BME280;20358;50.272;19.026;2023-04-25T03:10:45;97233.72;;;5.96;71.62
34081;BME280;20358;50.272;19.026;2023-04-25T03:13:56;97240.22;;;5.90;71.67
34081;BME280;20358;50.272;19.026;2023-04-25T03:17:02;97226.41;;;5.88;71.83
34081;BME280;20358;50.272;19.026;2023-04-25T03:20:11;97227.00;;;5.92;71.89
34081;BME280;20358;50.272;19.026;2023-04-25T03:23:17;97230.38;;;5.94;71.22
34081;BME280;20358;50.272;19.026;2023-04-25T03:26:23;97219.75;;;5.95;71.05
34081;BME280;20358;50.272;19.026;2023-04-25T03:29:31;97217.03;;;5.97;71.14
34081;BME280;20358;50.272;19.026;2023-04-25T03:32:40;97238.94;;;5.96;70.33
34081;BME280;20358;50.272;19.026;2023-04-25T03:35:49;97240.38;;;6.00;70.65
34081;BME280;20358;50.272;19.026;2023-04-25T03:38:56;97235.91;;;6.02;70.11
34081;BME280;20358;50.272;19.026;2023-04-25T03:42:04;97239.59;;;5.87;70.02
34081;BME280;20358;50.272;19.026;2023-04-25T03:45:13;97241.66;;;5.94;69.97
34081;BME280;20358;50.272;19.026;2023-04-25T03:48:19;97240.00;;;5.93;69.89
34081;BME280;20358;50.272;19.026;2023-04-25T03:51:28;97247.75;;;5.95;69.71
34081;BME280;20358;50.272;19.026;2023-04-25T03:54:36;97241.06;;;5.91;69.17
34081;BME280;20358;50.272;19.026;2023-04-25T03:57:49;97254.44;;;5.99;68.96
34081;BME280;20358;50.272;19.026;2023-04-25T04:00:58;97259.69;;;5.99;69.56
34081;BME280;20358;50.272;19.026;2023-04-25T04:04:06;97258.72;;;6.00;69.02
34081;BME280;20358;50.272;19.026;2023-04-25T04:07:13;97257.06;;;5.99;69.32
34081;BME280;20358;50.272;19.026;2023-04-25T04:10:22;97266.59;;;6.00;68.66
34081;BME280;20358;50.272;19.026;2023-04-25T04:13:29;97266.81;;;5.97;68.70
34081;BME280;20358;50.272;19.026;2023-04-25T04:16:40;97271.38;;;6.06;68.82
34081;BME280;20358;50.272;19.026;2023-04-25T04:19:47;97273.00;;;5.96;67.40
34081;BME280;20358;50.272;19.026;2023-04-25T04:22:55;97282.88;;;5.92;67.15
34081;BME280;20358;50.272;19.026;2023-04-25T04:26:01;97273.94;;;5.95;67.68
34081;BME280;20358;50.272;19.026;2023-04-25T04:29:31;97283.00;;;5.91;67.41
34081;BME280;20358;50.272;19.026;2023-04-25T04:32:50;97287.41;;;5.90;67.29
34081;BME280;20358;50.272;19.026;2023-04-25T04:35:57;97283.44;;;5.85;66.69
34081;BME280;20358;50.272;19.026;2023-04-25T04:39:05;97286.78;;;5.87;66.44
34081;BME280;20358;50.272;19.026;2023-04-25T04:42:18;97278.47;;;5.93;67.10
34081;BME280;20358;50.272;19.026;2023-04-25T04:45:29;97276.28;;;5.87;66.95
34081;BME280;20358;50.272;19.026;2023-04-25T04:48:57;97278.34;;;5.94;66.63
34081;BME280;20358;50.272;19.026;2023-04-25T04:52:29;97280.44;;;6.02;66.28
34081;BME280;20358;50.272;19.026;2023-04-25T04:55:54;97285.94;;;6.10;66.28
34081;BME280;20358;50.272;19.026;2023-04-25T04:59:46;97165.25;;;5.42;65.91
34081;BME280;20358;50.272;19.026;2023-04-25T05:03:22;97275.94;;;6.15;65.78
34081;BME280;20358;50.272;19.026;2023-04-25T05:07:13;97279.31;;;6.17;65.44
34081;BME280;20358;50.272;19.026;2023-04-25T05:10:25;97278.25;;;6.20;65.42
34081;BME280;20358;50.272;19.026;2023-04-25T05:13:31;97273.09;;;6.18;65.80
34081;BME280;20358;50.272;19.026;2023-04-25T05:17:27;97277.00;;;6.12;64.99
34081;BME280;20358;50.272;19.026;2023-04-25T05:20:41;97276.84;;;6.27;65.75
34081;BME280;20358;50.272;19.026;2023-04-25T05:24:03;97289.88;;;6.39;64.76
34081;BME280;20358;50.272;19.026;2023-04-25T05:27:27;97294.13;;;6.29;63.46
34081;BME280;20358;50.272;19.026;2023-04-25T05:30:34;97280.34;;;6.38;64.17
34081;BME280;20358;50.272;19.026;2023-04-25T05:33:52;97284.19;;;6.45;63.77
34081;BME280;20358;50.272;19.026;2023-04-25T05:37:02;97289.66;;;6.42;62.91
34081;BME280;20358;50.272;19.026;2023-04-25T05:40:22;97280.19;;;6.29;62.72
34081;BME280;20358;50.272;19.026;2023-04-25T05:43:40;97307.44;;;6.26;63.20
34081;BME280;20358;50.272;19.026;2023-04-25T05:47:02;97296.41;;;6.10;62.29
34081;BME280;20358;50.272;19.026;2023-04-25T05:50:29;97293.56;;;6.13;63.12
34081;BME280;20358;50.272;19.026;2023-04-25T05:53:38;97282.56;;;6.32;63.08
34081;BME280;20358;50.272;19.026;2023-04-25T05:56:48;97298.63;;;6.51;62.94
34081;BME280;20358;50.272;19.026;2023-04-25T05:59:54;97313.75;;;6.47;60.94
34081;BME280;20358;50.272;19.026;2023-04-25T06:03:15;97314.19;;;6.41;59.90
34081;BME280;20358;50.272;19.026;2023-04-25T06:06:23;97304.69;;;6.51;61.09
34081;BME280;20358;50.272;19.026;2023-04-25T06:09:29;97307.06;;;6.54;60.42
34081;BME280;20358;50.272;19.026;2023-04-25T06:12:38;97299.81;;;6.58;60.80
34081;BME280;20358;50.272;19.026;2023-04-25T06:15:44;97293.66;;;6.70;60.25
34081;BME280;20358;50.272;19.026;2023-04-25T06:18:50;97308.31;;;6.72;58.99
34081;BME280;20358;50.272;19.026;2023-04-25T06:21:57;97312.44;;;6.77;57.93
34081;BME280;20358;50.272;19.026;2023-04-25T06:25:03;97314.56;;;6.83;58.30
34081;BME280;20358;50.272;19.026;2023-04-25T06:28:13;97305.28;;;6.79;57.90
34081;BME280;20358;50.272;19.026;2023-04-25T06:31:19;97320.31;;;6.77;58.54
34081;BME280;20358;50.272;19.026;2023-04-25T06:34:27;97313.63;;;6.84;58.73
34081;BME280;20358;50.272;19.026;2023-04-25T06:37:33;97310.91;;;6.96;58.75
34081;BME280;20358;50.272;19.026;2023-04-25T06:40:40;97302.22;;;7.07;58.99
34081;BME280;20358;50.272;19.026;2023-04-25T06:43:48;97306.28;;;7.22;58.00
34081;BME280;20358;50.272;19.026;2023-04-25T06:47:03;97321.09;;;7.23;56.47
34081;BME280;20358;50.272;19.026;2023-04-25T06:50:09;97326.81;;;7.28;57.58
34081;BME280;20358;50.272;19.026;2023-04-25T06:53:16;97301.53;;;7.16;57.49
34081;BME280;20358;50.272;19.026;2023-04-25T06:56:28;97303.06;;;7.29;57.88
34081;BME280;20358;50.272;19.026;2023-04-25T06:59:46;97303.91;;;7.41;57.26
34081;BME280;20358;50.272;19.026;2023-04-25T07:02:52;97307.84;;;7.47;55.60
34081;BME280;20358;50.272;19.026;2023-04-25T07:05:58;97310.34;;;7.37;55.28
34081;BME280;20358;50.272;19.026;2023-04-25T07:09:05;97305.09;;;7.37;55.31
34081;BME280;20358;50.272;19.026;2023-04-25T07:12:11;97302.69;;;7.45;56.45
34081;BME280;20358;50.272;19.026;2023-04-25T07:15:21;97310.09;;;7.51;56.09
34081;BME280;20358;50.272;19.026;2023-04-25T07:18:27;97308.22;;;7.42;55.88
34081;BME280;20358;50.272;19.026;2023-04-25T07:21:34;97314.41;;;7.30;56.51
34081;BME280;20358;50.272;19.026;2023-04-25T07:24:41;97304.28;;;7.36;56.28
34081;BME280;20358;50.272;19.026;2023-04-25T07:27:54;97300.31;;;7.53;56.21
34081;BME280;20358;50.272;19.026;2023-04-25T07:31:04;97307.94;;;7.45;55.91
34081;BME280;20358;50.272;19.026;2023-04-25T07:34:10;97312.03;;;7.49;56.31
34081;BME280;20358;50.272;19.026;2023-04-25T07:37:16;97312.97;;;7.59;55.44
34081;BME280;20358;50.272;19.026;2023-04-25T07:40:40;97307.72;;;7.59;54.89
34081;BME280;20358;50.272;19.026;2023-04-25T07:43:48;97310.44;;;7.69;54.98
34081;BME280;20358;50.272;19.026;2023-04-25T07:46:57;97312.47;;;7.76;54.08
34081;BME280;20358;50.272;19.026;2023-04-25T07:50:08;97309.81;;;7.87;55.14
34081;BME280;20358;50.272;19.026;2023-04-25T07:53:14;97320.41;;;7.97;53.59
34081;BME280;20358;50.272;19.026;2023-04-25T07:56:36;97316.00;;;7.86;53.07
34081;BME280;20358;50.272;19.026;2023-04-25T07:59:54;97322.97;;;7.87;52.78
34081;BME280;20358;50.272;19.026;2023-04-25T08:03:04;97322.72;;;7.79;53.27
34081;BME280;20358;50.272;19.026;2023-04-25T08:06:11;97328.91;;;7.89;53.16
34081;BME280;20358;50.272;19.026;2023-04-25T08:09:27;97322.47;;;7.93;52.36
34081;BME280;20358;50.272;19.026;2023-04-25T08:12:39;97308.59;;;8.03;52.75
34081;BME280;20358;50.272;19.026;2023-04-25T08:15:45;97318.88;;;8.06;51.88
34081;BME280;20358;50.272;19.026;2023-04-25T08:18:54;97313.72;;;8.15;50.78
34081;BME280;20358;50.272;19.026;2023-04-25T08:22:01;97309.81;;;7.98;51.37
34081;BME280;20358;50.272;19.026;2023-04-25T08:25:17;97305.97;;;7.91;52.62
34081;BME280;20358;50.272;19.026;2023-04-25T08:28:24;97307.53;;;8.05;52.43
34081;BME280;20358;50.272;19.026;2023-04-25T08:31:33;97313.72;;;8.15;52.27
34081;BME280;20358;50.272;19.026;2023-04-25T08:34:45;97315.25;;;8.18;51.68
34081;BME280;20358;50.272;19.026;2023-04-25T08:37:51;97306.13;;;8.33;52.76
34081;BME280;20358;50.272;19.026;2023-04-25T08:41:00;97305.38;;;8.42;49.84
34081;BME280;20358;50.272;19.026;2023-04-25T08:44:12;97314.94;;;8.43;50.61
34081;BME280;20358;50.272;19.026;2023-04-25T08:47:22;97314.38;;;8.60;49.47
34081;BME280;20358;50.272;19.026;2023-04-25T08:50:35;97318.53;;;8.63;49.65
34081;BME280;20358;50.272;19.026;2023-04-25T08:53:43;97315.34;;;8.80;49.99
34081;BME280;20358;50.272;19.026;2023-04-25T08:57:01;97320.69;;;8.89;48.66
34081;BME280;20358;50.272;19.026;2023-04-25T09:00:09;97314.25;;;8.82;48.05
34081;BME280;20358;50.272;19.026;2023-04-25T09:03:19;97306.63;;;9.00;48.20
34081;BME280;20358;50.272;19.026;2023-04-25T09:06:29;97302.25;;;9.10;47.44
34081;BME280;20358;50.272;19.026;2023-04-25T09:09:40;97318.00;;;9.21;45.58
34081;BME280;20358;50.272;19.026;2023-04-25T09:13:02;97318.69;;;9.23;46.28
34081;BME280;20358;50.272;19.026;2023-04-25T09:17:00;97102.56;;;7.83;45.86
34081;BME280;20358;50.272;19.026;2023-04-25T09:20:23;97320.94;;;9.28;45.91
34081;BME280;20358;50.272;19.026;2023-04-25T09:23:39;97174.16;;;8.48;46.77
34081;BME280;20358;50.272;19.026;2023-04-25T09:26:46;97302.97;;;9.42;46.26
34081;BME280;20358;50.272;19.026;2023-04-25T09:29:57;97323.13;;;9.22;45.22
34081;BME280;20358;50.272;19.026;2023-04-25T09:33:30;97324.09;;;9.52;45.62
34081;BME280;20358;50.272;19.026;2023-04-25T09:36:39;97317.25;;;9.70;45.38
34081;BME280;20358;50.272;19.026;2023-04-25T09:40:08;97321.16;;;9.75;44.69
34081;BME280;20358;50.272;19.026;2023-04-25T09:43:36;97314.44;;;9.71;44.94
34081;BME280;20358;50.272;19.026;2023-04-25T09:46:43;97316.66;;;9.66;44.73
34081;BME280;20358;50.272;19.026;2023-04-25T09:49:55;97324.97;;;9.62;44.68
34081;BME280;20358;50.272;19.026;2023-04-25T09:53:03;97316.94;;;9.12;43.24
34081;BME280;20358;50.272;19.026;2023-04-25T09:57:07;97312.13;;;9.48;44.33
34081;BME280;20358;50.272;19.026;2023-04-25T10:00:19;97315.44;;;9.40;44.88
34081;BME280;20358;50.272;19.026;2023-04-25T10:03:27;97311.88;;;9.51;43.96
34081;BME280;20358;50.272;19.026;2023-04-25T10:06:49;97318.63;;;9.74;44.53
34081;BME280;20358;50.272;19.026;2023-04-25T10:09:59;97309.63;;;9.86;43.36
34081;BME280;20358;50.272;19.026;2023-04-25T10:13:11;97311.47;;;10.05;43.45
34081;BME280;20358;50.272;19.026;2023-04-25T10:16:17;97302.44;;;9.88;42.27
34081;BME280;20358;50.272;19.026;2023-04-25T10:19:25;97292.06;;;9.96;42.88
34081;BME280;20358;50.272;19.026;2023-04-25T10:22:35;97310.38;;;10.07;41.08
34081;BME280;20358;50.272;19.026;2023-04-25T10:25:44;97309.50;;;9.88;41.03
34081;BME280;20358;50.272;19.026;2023-04-25T10:29:01;97310.66;;;9.55;41.65
34081;BME280;20358;50.272;19.026;2023-04-25T10:32:09;97313.09;;;9.77;40.96
34081;BME280;20358;50.272;19.026;2023-04-25T10:35:26;97282.25;;;9.68;40.39
34081;BME280;20358;50.272;19.026;2023-04-25T10:38:36;97323.38;;;9.80;40.33
34081;BME280;20358;50.272;19.026;2023-04-25T10:41:46;97302.78;;;9.64;40.60
34081;BME280;20358;50.272;19.026;2023-04-25T10:45:08;97306.25;;;9.65;41.74
34081;BME280;20358;50.272;19.026;2023-04-25T10:48:24;97283.09;;;9.68;41.33
34081;BME280;20358;50.272;19.026;2023-04-25T10:51:33;97314.19;;;9.74;41.29
34081;BME280;20358;50.272;19.026;2023-04-25T10:54:57;97316.41;;;9.79;41.04
34081;BME280;20358;50.272;19.026;2023-04-25T10:58:04;97295.91;;;9.82;41.71
34081;BME280;20358;50.272;19.026;2023-04-25T11:01:13;97069.41;;;8.33;42.26
34081;BME280;20358;50.272;19.026;2023-04-25T11:04:22;97291.63;;;9.91;42.01
34081;BME280;20358;50.272;19.026;2023-04-25T11:07:34;97281.88;;;9.92;41.44
34081;BME280;20358;50.272;19.026;2023-04-25T11:10:48;97309.06;;;9.73;42.21
34081;BME280;20358;50.272;19.026;2023-04-25T11:13:54;97291.28;;;9.35;42.53
34081;BME280;20358;50.272;19.026;2023-04-25T11:17:03;97289.06;;;9.31;42.38
34081;BME280;20358;50.272;19.026;2023-04-25T11:20:10;97304.00;;;9.20;43.11
34081;BME280;20358;50.272;19.026;2023-04-25T11:23:18;97297.66;;;9.33;42.04
34081;BME280;20358;50.272;19.026;2023-04-25T11:26:24;97293.88;;;9.65;42.29
34081;BME280;20358;50.272;19.026;2023-04-25T11:29:33;97298.66;;;9.81;41.32
34081;BME280;20358;50.272;19.026;2023-04-25T11:32:43;97301.44;;;9.89;41.16
34081;BME280;20358;50.272;19.026;2023-04-25T11:35:50;97303.53;;;9.86;40.43
34081;BME280;20358;50.272;19.026;2023-04-25T11:38:57;97303.22;;;9.79;39.61
34081;BME280;20358;50.272;19.026;2023-04-25T11:42:04;97312.19;;;9.57;40.04
34081;BME280;20358;50.272;19.026;2023-04-25T11:45:14;97311.34;;;9.57;39.72
34081;BME280;20358;50.272;19.026;2023-04-25T11:48:24;97329.13;;;9.55;40.36
34081;BME280;20358;50.272;19.026;2023-04-25T11:51:30;97301.06;;;9.54;40.29
34081;BME280;20358;50.272;19.026;2023-04-25T11:54:44;97305.00;;;9.69;41.54
34081;BME280;20358;50.272;19.026;2023-04-25T11:57:52;97302.81;;;9.74;40.99
34081;BME280;20358;50.272;19.026;2023-04-25T12:01:00;97314.59;;;9.70;40.93
34081;BME280;20358;50.272;19.026;2023-04-25T12:04:17;97305.53;;;9.63;40.86
34081;BME280;20358;50.272;19.026;2023-04-25T12:07:28;97305.66;;;9.52;40.97
34081;BME280;20358;50.272;19.026;2023-04-25T12:10:37;97310.66;;;9.55;41.26
34081;BME280;20358;50.272;19.026;2023-04-25T12:13:51;97316.88;;;9.44;41.62
34081;BME280;20358;50.272;19.026;2023-04-25T12:16:59;97301.16;;;9.43;42.17
34081;BME280;20358;50.272;19.026;2023-04-25T12:20:13;97314.78;;;9.17;42.86
34081;BME280;20358;50.272;19.026;2023-04-25T12:23:25;97306.06;;;9.27;42.86
34081;BME280;20358;50.272;19.026;2023-04-25T12:26:49;97306.81;;;9.29;43.69
34081;BME280;20358;50.272;19.026;2023-04-25T12:29:57;97299.09;;;9.37;42.96
34081;BME280;20358;50.272;19.026;2023-04-25T12:33:04;97326.78;;;9.31;42.81
34081;BME280;20358;50.272;19.026;2023-04-25T12:36:13;97312.63;;;9.32;43.14
34081;BME280;20358;50.272;19.026;2023-04-25T12:39:22;97307.91;;;9.05;43.39
34081;BME280;20358;50.272;19.026;2023-04-25T12:42:29;97302.44;;;8.97;43.80
34081;BME280;20358;50.272;19.026;2023-04-25T12:45:35;97309.16;;;9.11;43.97
34081;BME280;20358;50.272;19.026;2023-04-25T12:48:42;97311.53;;;9.35;43.93
34081;BME280;20358;50.272;19.026;2023-04-25T12:51:51;97317.16;;;9.51;43.63
34081;BME280;20358;50.272;19.026;2023-04-25T12:54:57;97321.47;;;9.52;43.11
34081;BME280;20358;50.272;19.026;2023-04-25T12:58:03;97308.84;;;9.55;42.03
34081;BME280;20358;50.272;19.026;2023-04-25T13:01:09;97298.34;;;9.65;42.48
34081;BME280;20358;50.272;19.026;2023-04-25T13:04:16;97298.19;;;9.57;42.60
34081;BME280;20358;50.272;19.026;2023-04-25T13:07:26;97305.00;;;9.69;42.30
34081;BME280;20358;50.272;19.026;2023-04-25T13:10:34;97305.28;;;9.66;42.91
34081;BME280;20358;50.272;19.026;2023-04-25T13:13:41;97298.94;;;9.78;42.69
34081;BME280;20358;50.272;19.026;2023-04-25T13:16:50;97304.50;;;9.84;41.84
34081;BME280;20358;50.272;19.026;2023-04-25T13:19:56;97297.16;;;9.88;41.78
34081;BME280;20358;50.272;19.026;2023-04-25T13:23:06;97296.06;;;9.91;41.88
34081;BME280;20358;50.272;19.026;2023-04-25T13:26:12;97292.59;;;9.90;42.01
34081;BME280;20358;50.272;19.026;2023-04-25T13:29:19;97304.66;;;9.83;41.30
34081;BME280;20358;50.272;19.026;2023-04-25T13:32:24;97295.59;;;9.76;41.11
34081;BME280;20358;50.272;19.026;2023-04-25T13:35:31;97294.63;;;9.77;41.87
34081;BME280;20358;50.272;19.026;2023-04-25T13:38:40;97296.31;;;9.88;41.69
34081;BME280;20358;50.272;19.026;2023-04-25T13:41:48;97289.78;;;9.82;41.13
34081;BME280;20358;50.272;19.026;2023-04-25T13:44:53;97293.53;;;9.89;41.69
34081;BME280;20358;50.272;19.026;2023-04-25T13:48:00;97304.50;;;9.94;41.74
34081;BME280;20358;50.272;19.026;2023-04-25T13:51:06;97312.00;;;9.89;41.28
34081;BME280;20358;50.272;19.026;2023-04-25T13:54:15;97291.47;;;9.83;41.69
34081;BME280;20358;50.272;19.026;2023-04-25T13:57:20;97298.66;;;9.81;41.30
34081;BME280;20358;50.272;19.026;2023-04-25T14:00:27;97301.16;;;9.73;41.79
34081;BME280;20358;50.272;19.026;2023-04-25T14:03:33;97300.31;;;9.72;41.69
34081;BME280;20358;50.272;19.026;2023-04-25T14:06:40;97304.34;;;9.76;42.57
34081;BME280;20358;50.272;19.026;2023-04-25T14:09:48;97302.13;;;9.81;42.48
34081;BME280;20358;50.272;19.026;2023-04-25T14:12:57;97317.50;;;9.67;42.21
34081;BME280;20358;50.272;19.026;2023-04-25T14:16:02;97300.56;;;9.60;42.30
34081;BME280;20358;50.272;19.026;2023-04-25T14:19:09;97300.31;;;9.72;42.12
34081;BME280;20358;50.272;19.026;2023-04-25T14:22:15;97295.75;;;9.84;42.13
34081;BME280;20358;50.272;19.026;2023-04-25T14:25:25;97301.34;;;10.00;42.60
34081;BME280;20358;50.272;19.026;2023-04-25T14:28:31;97296.22;;;10.08;42.56
34081;BME280;20358;50.272;19.026;2023-04-25T14:31:39;97309.03;;;10.22;41.92
34081;BME280;20358;50.272;19.026;2023-04-25T14:34:45;97308.06;;;10.23;41.99
34081;BME280;20358;50.272;19.026;2023-04-25T14:37:52;97307.53;;;10.29;40.96
34081;BME280;20358;50.272;19.026;2023-04-25T14:41:03;97315.03;;;10.24;41.18
34081;BME280;20358;50.272;19.026;2023-04-25T14:44:09;97304.59;;;10.52;41.38
34081;BME280;20358;50.272;19.026;2023-04-25T14:47:16;97305.44;;;10.71;40.60
34081;BME280;20358;50.272;19.026;2023-04-25T14:50:22;97303.19;;;10.86;41.41
34081;BME280;20358;50.272;19.026;2023-04-25T14:53:28;97301.69;;;10.74;41.14
34081;BME280;20358;50.272;19.026;2023-04-25T14:56:37;97294.72;;;10.82;41.08
34081;BME280;20358;50.272;19.026;2023-04-25T14:59:43;97310.16;;;10.68;40.57
34081;BME280;20358;50.272;19.026;2023-04-25T15:02:50;97300.28;;;10.70;41.01
34081;BME280;20358;50.272;19.026;2023-04-25T15:05:56;97314.34;;;10.61;40.40
34081;BME280;20358;50.272;19.026;2023-04-25T15:09:03;97308.78;;;10.64;41.04
34081;BME280;20358;50.272;19.026;2023-04-25T15:12:12;97322.69;;;10.66;40.57
34081;BME280;20358;50.272;19.026;2023-04-25T15:15:18;97310.31;;;10.57;40.78
34081;BME280;20358;50.272;19.026;2023-04-25T15:18:28;97316.69;;;10.54;40.79
34081;BME280;20358;50.272;19.026;2023-04-25T15:21:35;97308.09;;;10.42;41.61
34081;BME280;20358;50.272;19.026;2023-04-25T15:24:41;97317.66;;;10.24;41.64
34081;BME280;20358;50.272;19.026;2023-04-25T15:27:50;97304.03;;;10.19;41.78
34081;BME280;20358;50.272;19.026;2023-04-25T15:30:56;97321.22;;;10.14;41.71
34081;BME280;20358;50.272;19.026;2023-04-25T15:34:03;97320.53;;;10.12;42.10
34081;BME280;20358;50.272;19.026;2023-04-25T15:37:09;97327.28;;;9.95;41.97
34081;BME280;20358;50.272;19.026;2023-04-25T15:40:16;97298.81;;;9.89;42.57
34081;BME280;20358;50.272;19.026;2023-04-25T15:43:25;97324.53;;;10.06;42.30
34081;BME280;20358;50.272;19.026;2023-04-25T15:46:31;97341.47;;;10.04;42.29
34081;BME280;20358;50.272;19.026;2023-04-25T15:49:37;97335.09;;;10.06;42.07
34081;BME280;20358;50.272;19.026;2023-04-25T15:52:44;97320.13;;;10.16;42.23
34081;BME280;20358;50.272;19.026;2023-04-25T15:55:49;97312.22;;;10.35;42.21
34081;BME280;20358;50.272;19.026;2023-04-25T15:58:59;97324.06;;;10.70;41.50
34081;BME280;20358;50.272;19.026;2023-04-25T16:02:04;97315.78;;;11.11;41.06
34081;BME280;20358;50.272;19.026;2023-04-25T16:05:11;97307.53;;;11.43;40.02
34081;BME280;20358;50.272;19.026;2023-04-25T16:08:16;97313.28;;;11.93;39.43
34081;BME280;20358;50.272;19.026;2023-04-25T16:11:23;97304.00;;;12.34;38.92
34081;BME280;20358;50.272;19.026;2023-04-25T16:14:31;97306.19;;;12.73;37.92
34081;BME280;20358;50.272;19.026;2023-04-25T16:17:38;97329.03;;;12.74;37.26
34081;BME280;20358;50.272;19.026;2023-04-25T16:20:43;97321.44;;;12.79;36.73
34081;BME280;20358;50.272;19.026;2023-04-25T16:23:50;97326.38;;;13.10;36.10
34081;BME280;20358;50.272;19.026;2023-04-25T16:26:56;97333.75;;;13.24;35.40
34081;BME280;20358;50.272;19.026;2023-04-25T16:30:06;97318.91;;;13.31;35.47
34081;BME280;20358;50.272;19.026;2023-04-25T16:33:13;97317.72;;;13.08;35.83
34081;BME280;20358;50.272;19.026;2023-04-25T16:36:20;97332.91;;;13.06;35.69
34081;BME280;20358;50.272;19.026;2023-04-25T16:39:26;97330.41;;;12.78;35.44
34081;BME280;20358;50.272;19.026;2023-04-25T16:42:32;97328.06;;;12.58;35.69
34081;BME280;20358;50.272;19.026;2023-04-25T16:45:41;97326.88;;;12.25;35.88